Brittany Beyel — WDE5871 — position and weather

sailwx.info

Track history (hours):
 
Tides and Currents Weather Stations Pressure Air Temp Water Temp Dewpoint Dewpoint Depression Visibility Wind Speed Wind Dir Waves Ship Positions

Brittany Beyel

Owner: Beyel Brothers Inc, Cocoa, FL. More information available from US FCC via Universal Licensing System and Coast Guard Vessel Documentation Center.

Last reported at 2017-Oct-09 00:38 UTC. Time now 2017-Oct-20 16:13 UTC.
Position N 27°00' W 080°06'.
Warning: this ship's position is 11 days out of date.

; draft 2 m.

Type: Ship. MMSI: 367372710.

Date/timePositionNaut miles runAvg speedWind from/ knotsBaromVisibWave heightAir tempDewpointWater temp
2017-Oct-09 00:38N 27°00' W 080°06'1 5.6
2017-Oct-09 00:30N 26°60' W 080°05'3 5.3
2017-Oct-09 00:00N 26°57' W 080°05'1 2.4
2017-Oct-08 23:30N 26°56' W 080°05'  
2017-Oct-06 04:39N 26°54' W 080°04'1 4.6
2017-Oct-06 04:30N 26°54' W 080°05'2 4.1
2017-Oct-06 04:00N 26°56' W 080°05'1 2.6
2017-Oct-06 03:30N 26°58' W 080°05'  
2017-Oct-02 21:11N 26°60' W 080°06'1 7.8
2017-Oct-02 21:01N 26°59' W 080°05'3 5.6
2017-Oct-02 20:31N 26°56' W 080°05'37 5.6
2017-Oct-02 13:51N 26°18' W 080°05'2 6.5
2017-Oct-02 13:30N 26°16' W 080°05'3 4.8
2017-Oct-02 12:56N 26°14' W 080°06'2 5.4
2017-Oct-02 12:30N 26°11' W 080°06'3 6.2
2017-Oct-02 12:00N 26°08' W 080°07'1 2.1
2017-Oct-02 11:30N 26°07' W 080°07'0 0.2
2017-Oct-02 11:00N 26°07' W 080°06'0 0.0
2017-Oct-02 10:30N 26°07' W 080°06'0 0.0
2017-Oct-02 10:00N 26°07' W 080°06'0 0.0
2017-Oct-02 09:30N 26°07' W 080°06'0 0.0
2017-Oct-02 09:00N 26°07' W 080°06'0 0.0
2017-Oct-02 08:29N 26°07' W 080°06'0 0.0
2017-Oct-02 08:00N 26°07' W 080°06'0 0.0
2017-Oct-02 07:27N 26°07' W 080°06'0 0.0
2017-Oct-02 07:00N 26°07' W 080°06'1 2.3
2017-Oct-02 06:30N 26°08' W 080°07'44 5.2
2017-Oct-01 22:00N 26°52' W 080°04'2 4.8
2017-Oct-01 21:30N 26°55' W 080°05'2 4.4
2017-Oct-01 21:01N 26°57' W 080°05'36 0.7
2017-Sep-29 20:19N 26°21' W 080°05'9 5.2
2017-Sep-29 18:35N 26°12' W 080°06'0 5.5
2017-Sep-29 18:31N 26°11' W 080°06'8 5.0
2017-Sep-29 17:00N 26°04' W 080°07'2 4.1
2017-Sep-29 16:30N 26°02' W 080°07'2 4.7
2017-Sep-29 16:00N 25°60' W 080°07'3 5.6
2017-Sep-29 15:30N 25°57' W 080°08'2 4.6
2017-Sep-29 15:00N 25°54' W 080°08'2 4.6
2017-Sep-29 14:30N 25°53' W 080°09'2 4.2
2017-Sep-29 14:00N 25°51' W 080°10'1 2.5
2017-Sep-29 13:30N 25°50' W 080°10'  
Track history (hours):
 
Tides and Currents Weather Stations Pressure Air Temp Water Temp Dewpoint Dewpoint Depression Visibility Wind Speed Wind Dir Waves Ship Positions

Brittany Beyel

Owner: Beyel Brothers Inc, Cocoa, FL. More information available from US FCC via Universal Licensing System and Coast Guard Vessel Documentation Center.

Last reported at 2017-Oct-09 00:38 UTC. Time now 2017-Oct-20 16:13 UTC.
Position N 27°00' W 080°06'.
Warning: this ship's position is 11 days out of date.

; draft 2 m.

Type: Ship. MMSI: 367372710.

Date/timePositionNaut miles runAvg speedWind from/ knotsBaromVisibWave heightAir tempDewpointWater temp
2017-Oct-09 00:38N 27°00' W 080°06'1 5.6
2017-Oct-09 00:30N 26°60' W 080°05'3 5.3
2017-Oct-09 00:00N 26°57' W 080°05'1 2.4
2017-Oct-08 23:30N 26°56' W 080°05'  
2017-Oct-06 04:39N 26°54' W 080°04'1 4.6
2017-Oct-06 04:30N 26°54' W 080°05'2 4.1
2017-Oct-06 04:00N 26°56' W 080°05'1 2.6
2017-Oct-06 03:30N 26°58' W 080°05'  
2017-Oct-02 21:11N 26°60' W 080°06'1 7.8
2017-Oct-02 21:01N 26°59' W 080°05'3 5.6
2017-Oct-02 20:31N 26°56' W 080°05'37 5.6
2017-Oct-02 13:51N 26°18' W 080°05'2 6.5
2017-Oct-02 13:30N 26°16' W 080°05'3 4.8
2017-Oct-02 12:56N 26°14' W 080°06'2 5.4
2017-Oct-02 12:30N 26°11' W 080°06'3 6.2
2017-Oct-02 12:00N 26°08' W 080°07'1 2.1
2017-Oct-02 11:30N 26°07' W 080°07'0 0.2
2017-Oct-02 11:00N 26°07' W 080°06'0 0.0
2017-Oct-02 10:30N 26°07' W 080°06'0 0.0
2017-Oct-02 10:00N 26°07' W 080°06'0 0.0
2017-Oct-02 09:30N 26°07' W 080°06'0 0.0
2017-Oct-02 09:00N 26°07' W 080°06'0 0.0
2017-Oct-02 08:29N 26°07' W 080°06'0 0.0
2017-Oct-02 08:00N 26°07' W 080°06'0 0.0
2017-Oct-02 07:27N 26°07' W 080°06'0 0.0
2017-Oct-02 07:00N 26°07' W 080°06'1 2.3
2017-Oct-02 06:30N 26°08' W 080°07'44 5.2
2017-Oct-01 22:00N 26°52' W 080°04'2 4.8
2017-Oct-01 21:30N 26°55' W 080°05'2 4.4
2017-Oct-01 21:01N 26°57' W 080°05'36 0.7
2017-Sep-29 20:19N 26°21' W 080°05'9 5.2
2017-Sep-29 18:35N 26°12' W 080°06'0 5.5
2017-Sep-29 18:31N 26°11' W 080°06'8 5.0
2017-Sep-29 17:00N 26°04' W 080°07'2 4.1
2017-Sep-29 16:30N 26°02' W 080°07'2 4.7
2017-Sep-29 16:00N 25°60' W 080°07'3 5.6
2017-Sep-29 15:30N 25°57' W 080°08'2 4.6
2017-Sep-29 15:00N 25°54' W 080°08'2 4.6
2017-Sep-29 14:30N 25°53' W 080°09'2 4.2
2017-Sep-29 14:00N 25°51' W 080°10'1 2.5
2017-Sep-29 13:30N 25°50' W 080°10'  

Dump ship's entire track history